Time;durP1;ratioP1;P1;durP2;ratioP2;P2;SDS_P1;SDS_P2;PMS_P1;PMS_P2;Temp;Humidity;BMP_temperature;BMP_pressure;BME280_temperature;BME280_humidity;BME280_pressure;Samples;Min_cycle;Max_cycle;Signal;HPM_P1;HPM_P2
2023/02/09 00:00:10;;;;;;;29.50;17.70;;;;;;;-12.22;85.64;99810.16;110141;1242;70922;-70
2023/02/09 00:03:04;;;;;;;29.70;16.60;;;;;;;-12.20;86.28;99808.09;110078;1245;69261;-70
2023/02/09 00:05:33;;;;;;;31.40;19.90;;;;;;;-12.19;87.48;99803.92;110281;1240;69350;-71
2023/02/09 00:08:02;;;;;;;32.40;20.40;;;;;;;-12.21;87.87;99808.70;110270;1242;58864;-71
2023/02/09 00:10:31;;;;;;;39.70;21.60;;;;;;;-12.22;89.28;99817.88;110310;1244;58932;-71
2023/02/09 00:16:02;;;;;;;35.70;23.00;;;;;;;-12.30;89.64;99822.99;110204;1244;69255;-71
2023/02/09 00:18:33;;;;;;;33.50;18.90;;;;;;;-12.33;88.72;99825.19;110115;1242;68210;-71
2023/02/09 00:21:06;;;;;;;24.90;14.70;;;;;;;-12.33;90.92;99825.85;110192;1242;58874;-70
2023/02/09 00:23:39;;;;;;;30.90;18.30;;;;;;;-12.36;90.30;99823.98;110202;1240;59004;-70
2023/02/09 00:26:10;;;;;;;38.10;24.50;;;;;;;-12.42;89.33;99823.01;110292;1242;70570;-70
2023/02/09 00:28:43;;;;;;;30.40;18.10;;;;;;;-12.45;85.81;99822.64;110219;1241;69579;-71
2023/02/09 00:31:13;;;;;;;38.30;22.10;;;;;;;-12.45;87.99;99826.20;110297;1241;68718;-71
2023/02/09 00:33:43;;;;;;;35.80;21.20;;;;;;;-12.45;89.43;99822.83;110256;1241;58918;-70
2023/02/09 00:36:13;;;;;;;33.70;18.80;;;;;;;-12.47;88.53;99819.52;110218;1240;58890;-71
2023/02/09 00:38:43;;;;;;;31.30;19.20;;;;;;;-12.49;86.90;99815.05;110309;1241;70591;-71
2023/02/09 00:41:14;;;;;;;26.30;16.90;;;;;;;-12.46;88.17;99814.34;110177;1244;68251;-71
2023/02/09 00:43:44;;;;;;;39.60;22.90;;;;;;;-12.45;90.76;99817.46;110315;1241;69310;-71
2023/02/09 00:46:15;;;;;;;45.40;23.60;;;;;;;-12.45;91.52;99814.25;110314;1243;58945;-71
2023/02/09 00:48:45;;;;;;;45.00;23.20;;;;;;;-12.45;90.39;99813.60;110261;1241;58863;-70
2023/02/09 00:51:14;;;;;;;38.30;21.90;;;;;;;-12.43;89.12;99815.70;110186;1242;71041;-70
2023/02/09 00:53:44;;;;;;;47.20;23.70;;;;;;;-12.45;88.48;99815.79;110278;1242;69826;-71
2023/02/09 00:56:14;;;;;;;;;;;;;;;-12.50;88.21;99812.98;110150;1243;69666;-71
2023/02/09 00:58:44;;;;;;;25.60;18.00;;;;;;;-12.51;88.99;99805.69;110331;1241;58957;-71
2023/02/09 01:01:14;;;;;;;43.90;22.80;;;;;;;-12.53;90.42;99804.59;110335;1241;58892;-70
2023/02/09 01:03:43;;;;;;;28.00;18.00;;;;;;;-12.57;89.53;99801.98;110239;1241;70768;-70
2023/02/09 01:06:14;;;;;;;33.60;18.60;;;;;;;-12.62;89.15;99802.73;110284;1241;69133;-70
2023/02/09 01:08:43;;;;;;;26.80;18.80;;;;;;;-12.65;88.79;99794.45;110323;1241;69066;-71
2023/02/09 01:11:14;;;;;;;31.80;16.30;;;;;;;-12.66;89.90;99794.23;110286;1240;58925;-71
2023/02/09 01:13:44;;;;;;;35.20;20.20;;;;;;;-12.70;90.58;99791.00;110149;1244;59155;-71
2023/02/09 01:16:17;;;;;;;41.20;23.40;;;;;;;-12.71;91.27;99787.27;110229;1241;70486;-70
2023/02/09 01:18:48;;;;;;;34.80;19.10;;;;;;;-12.73;91.33;99782.58;110374;1243;69857;-71
2023/02/09 01:21:19;;;;;;;;;;;;;;;-12.75;91.36;99779.44;109815;1242;663605;-71
2023/02/09 01:23:49;;;;;;;16.90;13.60;;;;;;;-12.80;89.49;99778.16;110297;1242;58952;-71
2023/02/09 01:26:20;;;;;;;32.60;17.20;;;;;;;-12.80;87.01;99777.48;110296;1241;58869;-71
2023/02/09 01:28:53;;;;;;;22.20;13.70;;;;;;;-12.77;89.87;99776.13;110132;1242;70591;-71
2023/02/09 01:31:33;;;;;;;21.70;12.80;;;;;;;-12.77;89.63;99774.11;110317;1241;67385;-70
2023/02/09 01:34:04;;;;;;;29.50;18.50;;;;;;;-12.76;89.80;99776.36;110190;1242;69216;-70
2023/02/09 01:36:34;;;;;;;25.50;15.40;;;;;;;-12.73;91.84;99776.73;110344;1242;58953;-70
2023/02/09 01:39:05;;;;;;;27.10;17.40;;;;;;;-12.75;91.01;99777.44;110328;1241;59166;-71
2023/02/09 01:41:36;;;;;;;27.60;14.30;;;;;;;-12.79;87.55;99779.23;110149;1242;70617;-71
2023/02/09 01:44:11;;;;;;;31.70;16.30;;;;;;;-12.81;85.77;99775.39;110227;1243;68947;-71
2023/02/09 01:46:43;;;;;;;34.00;19.90;;;;;;;-12.83;84.80;99778.02;110307;1240;68305;-70
2023/02/09 01:49:27;;;;;;;25.20;15.50;;;;;;;-12.85;87.58;99778.89;110309;1240;58921;-71
2023/02/09 01:52:02;;;;;;;23.90;13.80;;;;;;;-12.89;87.82;99777.00;110271;1241;58864;-69
2023/02/09 01:54:39;;;;;;;23.70;15.70;;;;;;;-12.92;89.80;99775.00;110195;1244;70656;-70
2023/02/09 01:57:14;;;;;;;28.30;15.00;;;;;;;-12.93;90.72;99773.92;110177;1240;68639;-71
2023/02/09 01:59:49;;;;;;;28.80;18.00;;;;;;;-12.94;90.49;99770.80;110161;1242;69109;-71
2023/02/09 02:02:21;;;;;;;26.20;16.70;;;;;;;-12.95;90.19;99769.23;110185;1242;59000;-71
2023/02/09 02:04:52;;;;;;;31.80;16.30;;;;;;;-12.97;91.13;99766.98;110200;1244;58938;-71
2023/02/09 02:07:50;;;;;;;27.90;14.30;;;;;;;-12.98;91.18;99766.70;110152;1241;71134;-71
2023/02/09 02:10:21;;;;;;;33.20;18.90;;;;;;;-13.04;90.05;99767.05;110090;1242;68493;-71
2023/02/09 02:12:53;;;;;;;37.00;18.60;;;;;;;-13.12;89.01;99764.95;110153;1244;69877;-71
2023/02/09 02:15:34;;;;;;;29.70;17.70;;;;;;;-13.16;90.73;99756.98;110177;1242;58876;-71
2023/02/09 02:18:35;;;;;;;28.50;15.80;;;;;;;-13.17;91.36;99754.72;110308;1244;58899;-71
2023/02/09 02:21:37;;;;;;;31.10;17.20;;;;;;;-13.17;91.58;99751.39;110344;1241;69847;-71
2023/02/09 02:24:44;;;;;;;28.30;15.00;;;;;;;-13.17;91.55;99749.20;110133;1244;69255;-71
2023/02/09 02:27:32;;;;;;;28.30;17.00;;;;;;;-13.17;92.14;99745.15;109974;1242;70502;-71
2023/02/09 02:30:38;;;;;;;22.40;11.50;;;;;;;-13.21;91.72;99744.41;110399;1241;58929;-71
2023/02/09 02:33:41;;;;;;;42.00;20.80;;;;;;;-13.24;91.77;99742.74;110318;1242;58932;-71
2023/02/09 02:36:52;;;;;;;27.30;13.90;;;;;;;-13.24;92.55;99745.11;110192;1241;69683;-71
2023/02/09 02:39:31;;;;;;;26.60;13.80;;;;;;;-13.26;89.82;99747.35;110146;1241;69819;-71
2023/02/09 02:45:08;;;;;;;20.70;11.90;;;;;;;-13.24;85.30;99744.59;110165;1244;58996;-71
2023/02/09 02:47:41;;;;;;;31.00;16.80;;;;;;;-13.23;86.48;99740.30;110177;1242;58874;-71
2023/02/09 02:50:15;;;;;;;28.10;15.90;;;;;;;-13.26;87.25;99741.30;110099;1245;70583;-70
2023/02/09 02:52:49;;;;;;;23.50;15.50;;;;;;;-13.31;87.02;99735.27;110192;1242;67376;-71
2023/02/09 02:55:23;;;;;;;23.30;13.40;;;;;;;-13.36;88.16;99737.19;110184;1243;68980;-71
2023/02/09 02:57:59;;;;;;;24.40;14.00;;;;;;;-13.38;89.14;99733.56;110205;1244;59333;-71
2023/02/09 03:00:36;;;;;;;22.90;13.50;;;;;;;-13.40;88.39;99732.42;110139;1242;59192;-71
2023/02/09 03:03:15;;;;;;;26.10;14.60;;;;;;;-13.43;86.38;99732.59;110150;1242;70696;-71
2023/02/09 03:05:46;;;;;;;25.50;12.50;;;;;;;-13.47;86.98;99734.23;110104;1242;69254;-71
2023/02/09 03:08:16;;;;;;;25.10;12.40;;;;;;;-13.49;85.38;99732.61;110184;1242;69808;-70
2023/02/09 03:10:48;;;;;;;21.20;11.90;;;;;;;-13.49;86.02;99735.61;110180;1242;58869;-69
2023/02/09 03:13:33;;;;;;;20.80;12.30;;;;;;;-13.51;85.21;99732.47;110311;1242;58883;-70
2023/02/09 03:16:12;;;;;;;23.30;13.60;;;;;;;-13.52;84.52;99732.43;110178;1243;70431;-70
2023/02/09 03:19:04;;;;;;;18.30;11.20;;;;;;;-13.51;85.63;99730.59;110211;1240;68578;-70
2023/02/09 03:21:53;;;;;;;27.50;13.00;;;;;;;-13.50;88.98;99728.15;110202;1243;69703;-70
2023/02/09 03:24:36;;;;;;;17.10;10.20;;;;;;;-13.51;89.91;99722.24;110154;1245;58956;-69
2023/02/09 03:27:16;;;;;;;19.10;11.10;;;;;;;-13.52;89.09;99726.70;110186;1242;58878;-70
2023/02/09 03:29:51;;;;;;;27.50;15.70;;;;;;;-13.52;90.23;99729.20;110306;1241;70598;-71
2023/02/09 03:32:22;;;;;;;21.60;12.20;;;;;;;-13.52;91.38;99730.59;110317;1241;69576;-70
2023/02/09 03:34:54;;;;;;;25.40;14.70;;;;;;;-13.53;90.64;99731.16;110218;1243;69345;-71
2023/02/09 03:37:24;;;;;;;23.40;13.50;;;;;;;-13.53;91.09;99728.11;110155;1247;58935;-70
2023/02/09 03:39:54;;;;;;;15.80;10.40;;;;;;;-13.58;90.61;99725.02;110153;1242;58981;-71
2023/02/09 03:42:23;;;;;;;22.90;12.90;;;;;;;-13.61;90.71;99720.33;110229;1242;69617;-69
2023/02/09 03:44:53;;;;;;;21.90;13.80;;;;;;;-13.63;90.47;99715.48;110154;1243;68559;-71
2023/02/09 03:47:23;;;;;;;21.20;15.00;;;;;;;-13.69;89.79;99710.46;110140;1242;69851;-70
2023/02/09 03:49:54;;;;;;;26.80;14.70;;;;;;;-13.74;89.85;99705.76;110138;1250;59335;-70
2023/02/09 03:52:23;;;;;;;22.70;14.00;;;;;;;-13.78;90.34;99706.52;110151;1242;58864;-70
2023/02/09 03:54:53;;;;;;;19.10;12.50;;;;;;;-13.78;91.05;99706.50;110286;1239;71211;-70
2023/02/09 03:57:23;;;;;;;21.50;12.80;;;;;;;-13.79;89.83;99700.26;110234;1241;68763;-70
2023/02/09 03:59:53;;;;;;;22.60;13.80;;;;;;;-13.76;87.88;99697.25;110269;1242;69202;-70
2023/02/09 04:02:22;;;;;;;27.00;15.70;;;;;;;-13.72;90.62;99698.20;110251;1246;58871;-71
2023/02/09 04:04:52;;;;;;;33.20;18.50;;;;;;;-13.75;88.83;99698.85;110336;1242;58905;-70
2023/02/09 04:07:22;;;;;;;31.70;19.00;;;;;;;-13.80;87.56;99700.02;110330;1241;69632;-70
2023/02/09 04:09:52;;;;;;;34.30;19.80;;;;;;;-13.86;87.25;99701.02;110292;1241;68505;-70
2023/02/09 04:12:22;;;;;;;34.60;21.10;;;;;;;-13.96;87.07;99706.16;110145;1241;69725;-69
2023/02/09 04:14:51;;;;;;;44.70;20.70;;;;;;;-14.08;86.20;99707.89;110241;1240;58975;-69
2023/02/09 04:17:21;;;;;;;35.80;20.20;;;;;;;-14.18;87.20;99704.28;110262;1250;58908;-71
2023/02/09 04:19:52;;;;;;;31.30;17.60;;;;;;;-14.20;89.32;99700.98;110210;1242;70558;-70
2023/02/09 04:22:23;;;;;;;23.00;16.30;;;;;;;-14.20;89.74;99700.31;110193;1241;69563;-69
2023/02/09 04:24:52;;;;;;;20.50;13.50;;;;;;;-14.21;90.37;99700.11;110163;1243;69260;-70
2023/02/09 04:27:22;;;;;;;31.80;20.30;;;;;;;-14.22;90.46;99702.89;110201;1242;58846;-70
2023/02/09 04:29:52;;;;;;;41.10;23.50;;;;;;;-14.23;90.54;99700.14;110318;1242;59310;-70
2023/02/09 04:32:21;;;;;;;36.10;19.10;;;;;;;-14.28;90.11;99698.34;110332;1242;71173;-70
2023/02/09 04:34:50;;;;;;;28.00;15.20;;;;;;;-14.32;89.80;99695.75;110287;1242;69216;-71
2023/02/09 04:37:21;;;;;;;27.90;20.20;;;;;;;-14.34;89.97;99689.73;110332;1241;69734;-70
2023/02/09 04:39:51;;;;;;;36.50;19.70;;;;;;;-14.36;90.17;99691.98;110263;1241;58937;-70
2023/02/09 04:42:21;;;;;;;35.10;17.70;;;;;;;-14.39;89.89;99694.13;110198;1242;59280;-70
2023/02/09 04:44:50;;;;;;;;;;;;;;;-14.39;90.40;99695.30;110263;1242;70596;-70
2023/02/09 04:47:20;;;;;;;26.30;14.30;;;;;;;-14.41;90.40;99695.55;110333;1242;69751;-71
2023/02/09 04:49:50;;;;;;;16.80;12.00;;;;;;;-14.42;90.89;99695.85;110242;1244;69671;-70
2023/02/09 04:52:21;;;;;;;19.30;12.50;;;;;;;-14.43;90.10;99694.59;110133;1243;58937;-71
2023/02/09 04:54:50;;;;;;;15.80;9.80;;;;;;;-14.44;89.48;99696.88;110148;1242;59350;-70
2023/02/09 05:00:10;;;;;;;25.40;14.00;;;;;;;-14.44;89.67;99690.47;110156;1242;69238;-70
2023/02/09 05:02:39;;;;;;;31.80;18.60;;;;;;;-14.42;91.06;99684.77;110207;1243;69379;-70
2023/02/09 05:05:09;;;;;;;26.40;14.60;;;;;;;-14.35;93.74;99683.34;110325;1242;58869;-70
2023/02/09 05:07:38;;;;;;;21.00;16.10;;;;;;;-14.31;91.02;99680.35;110280;1249;58854;-71
2023/02/09 05:10:07;;;;;;;17.00;12.60;;;;;;;-14.24;90.37;99686.14;110286;1242;69617;-70
2023/02/09 05:12:37;;;;;;;19.90;13.40;;;;;;;-14.23;88.93;99682.08;110362;1241;69361;-70
2023/02/09 05:15:09;;;;;;;28.80;13.70;;;;;;;-14.23;86.71;99685.05;110286;1241;70238;-70
2023/02/09 05:17:39;;;;;;;27.60;14.10;;;;;;;-14.25;85.44;99687.11;110232;1240;58932;-70
2023/02/09 05:20:09;;;;;;;24.20;14.00;;;;;;;-14.26;85.48;99687.91;110464;1241;58878;-70
2023/02/09 05:22:38;;;;;;;;;;;;;;;-14.27;85.35;99692.02;110524;1242;71069;-70
2023/02/09 05:25:08;;;;;;;31.10;18.90;;;;;;;-14.34;86.33;99694.14;110467;1242;69436;-69
2023/02/09 05:27:36;;;;;;;37.50;20.60;;;;;;;-14.44;87.49;99694.48;110391;1242;70056;-69
2023/02/09 05:30:07;;;;;;;38.40;22.30;;;;;;;-14.28;93.71;99697.66;110399;1240;58829;-70
2023/02/09 05:32:36;;;;;;;33.40;20.50;;;;;;;-14.19;95.43;99700.57;110445;1241;58909;-70
2023/02/09 05:35:05;;;;;;;34.10;19.60;;;;;;;-14.19;93.97;99702.41;110503;1242;70552;-70
2023/02/09 05:37:36;;;;;;;32.20;19.50;;;;;;;-14.16;93.49;99701.38;110243;1242;68454;-71
2023/02/09 05:40:06;;;;;;;43.10;20.90;;;;;;;-14.11;93.63;99704.71;110289;1242;69858;-70
2023/02/09 05:42:35;;;;;;;34.60;18.90;;;;;;;-14.08;93.01;99705.22;110297;1240;58922;-71
2023/02/09 05:45:05;;;;;;;55.40;27.30;;;;;;;-13.99;93.49;99707.13;110387;1242;58874;-70
2023/02/09 05:47:36;;;;;;;49.80;26.70;;;;;;;-13.96;93.22;99705.65;110297;1243;69588;-71
2023/02/09 05:50:06;;;;;;;28.70;17.30;;;;;;;-13.96;92.48;99705.83;110387;1241;67740;-69
2023/02/09 05:52:35;;;;;;;24.20;14.90;;;;;;;-14.02;91.43;99706.64;110228;1241;68376;-70
2023/02/09 05:55:05;;;;;;;37.60;21.20;;;;;;;-14.02;91.27;99711.63;110273;1241;58874;-70
2023/02/09 05:57:34;;;;;;;38.70;20.60;;;;;;;-14.00;91.42;99708.21;110294;1243;58938;-71
2023/02/09 06:00:06;;;;;;;33.00;15.80;;;;;;;-13.98;91.09;99710.55;110228;1240;71158;-70
2023/02/09 06:02:42;;;;;;;25.50;18.00;;;;;;;-13.98;90.10;99709.22;110219;1242;69661;-71
2023/02/09 06:05:11;;;;;;;35.40;23.80;;;;;;;-14.01;89.39;99705.54;110154;1243;69288;-71
2023/02/09 06:07:40;;;;;;;38.10;21.80;;;;;;;-14.04;88.42;99705.61;110132;1243;58955;-71
2023/02/09 06:10:09;;;;;;;39.70;20.00;;;;;;;-14.05;88.31;99705.40;110235;1241;58934;-71
2023/02/09 06:12:38;;;;;;;33.00;21.40;;;;;;;-14.07;87.71;99704.63;110170;1242;69822;-71
2023/02/09 06:15:09;;;;;;;;;;;;;;;-14.04;87.90;99701.48;110341;1242;69877;-70
2023/02/09 06:17:38;;;;;;;74.10;45.80;;;;;;;-13.96;88.21;99697.58;110156;1243;69846;-70
2023/02/09 06:20:08;;;;;;;51.70;32.00;;;;;;;-13.90;88.44;99700.95;110155;1243;58953;-70
2023/02/09 06:22:37;;;;;;;65.00;38.70;;;;;;;-13.84;88.22;99701.67;110401;1242;58942;-69
2023/02/09 06:25:06;;;;;;;60.30;34.80;;;;;;;-13.78;88.08;99700.69;110221;1242;70589;-70
2023/02/09 06:27:35;;;;;;;41.60;23.70;;;;;;;-13.70;87.49;99699.62;110241;1241;68468;-71
2023/02/09 06:30:06;;;;;;;45.40;25.70;;;;;;;-13.62;86.56;99695.42;110108;1247;69741;-71
2023/02/09 06:32:35;;;;;;;55.10;30.40;;;;;;;-13.53;86.25;99699.34;110257;1242;58882;-70
2023/02/09 06:35:04;;;;;;;45.20;27.20;;;;;;;-13.41;87.72;99697.30;110333;1241;58844;-69
2023/02/09 06:37:33;;;;;;;52.40;30.20;;;;;;;-13.31;87.77;99700.05;110438;1242;70886;-70
2023/02/09 06:40:03;;;;;;;50.90;26.90;;;;;;;-13.21;88.01;99697.98;110152;1241;69808;-69
2023/02/09 06:42:42;;;;;;;63.70;43.50;;;;;;;-13.07;88.61;99702.23;110253;1241;69449;-69
2023/02/09 06:45:14;;;;;;;67.50;39.80;;;;;;;-12.99;87.59;99701.36;110289;1241;58956;-69
2023/02/09 06:47:44;;;;;;;56.90;31.20;;;;;;;-12.94;86.71;99698.43;110196;1242;58868;-70
2023/02/09 06:50:15;;;;;;;71.70;44.30;;;;;;;-12.85;86.31;99698.77;110295;1242;70029;-69
2023/02/09 06:52:44;;;;;;;58.90;35.10;;;;;;;-12.70;86.21;99695.25;110212;1243;69211;-69
2023/02/09 06:55:13;;;;;;;52.20;32.00;;;;;;;-12.48;86.24;99697.98;110160;1245;69342;-69
2023/02/09 06:57:42;;;;;;;53.10;31.70;;;;;;;-12.11;85.88;99702.48;110060;1247;58886;-70
2023/02/09 07:00:12;;;;;;;46.60;28.40;;;;;;;-11.55;85.70;99703.35;110186;1240;58931;-70
2023/02/09 07:02:42;;;;;;;44.10;28.50;;;;;;;-10.90;86.31;99694.27;110125;1249;70975;-70
2023/02/09 07:05:13;;;;;;;54.90;32.20;;;;;;;-10.22;84.42;99692.41;110320;1242;68494;-70
2023/02/09 07:07:43;;;;;;;52.10;30.00;;;;;;;-9.48;82.21;99689.06;110240;1241;68257;-70
2023/02/09 07:10:15;;;;;;;43.90;28.70;;;;;;;-8.79;74.96;99688.59;110330;1246;58941;-71
2023/02/09 07:12:44;;;;;;;43.10;23.00;;;;;;;-8.10;75.67;99690.39;110270;1241;58850;-71
2023/02/09 07:15:14;;;;;;;41.60;26.50;;;;;;;-7.52;71.50;99687.26;110309;1241;71014;-70
2023/02/09 07:17:43;;;;;;;47.00;27.80;;;;;;;-7.09;68.59;99685.84;110157;1242;69125;-71
2023/02/09 07:20:12;;;;;;;41.70;27.20;;;;;;;-6.63;66.00;99683.63;110297;1241;68592;-72
2023/02/09 07:22:41;;;;;;;40.60;27.90;;;;;;;-6.10;64.31;99682.52;110280;1242;59176;-71
2023/02/09 07:25:10;;;;;;;42.50;29.80;;;;;;;-5.56;61.98;99683.21;110257;1242;58832;-71
2023/02/09 07:27:43;;;;;;;49.60;30.30;;;;;;;-5.22;60.91;99682.26;110249;1240;70591;-70
2023/02/09 07:30:12;;;;;;;41.80;28.80;;;;;;;-5.09;58.68;99678.34;110177;1241;69361;-72
2023/02/09 07:32:41;;;;;;;49.40;34.60;;;;;;;-5.06;57.79;99681.15;110171;1243;69286;-71
2023/02/09 07:35:10;;;;;;;65.40;42.80;;;;;;;-4.71;58.02;99683.02;110083;1245;58943;-70
2023/02/09 07:37:39;;;;;;;54.80;38.10;;;;;;;-4.30;56.13;99684.67;110133;1242;58845;-70
2023/02/09 07:40:09;;;;;;;66.00;43.40;;;;;;;-3.81;56.34;99685.42;110294;1242;71220;-70
2023/02/09 07:42:37;;;;;;;60.10;39.50;;;;;;;-3.58;54.21;99687.06;110257;1244;68526;-71
2023/02/09 07:45:08;;;;;;;56.90;38.40;;;;;;;-3.45;53.28;99685.95;110324;1241;68506;-71
2023/02/09 07:47:37;;;;;;;54.00;33.60;;;;;;;-3.15;52.86;99687.05;110342;1240;58895;-70
2023/02/09 07:50:07;;;;;;;49.10;31.00;;;;;;;-2.91;52.23;99687.96;110200;1242;59329;-72
2023/02/09 07:52:36;;;;;;;49.30;31.80;;;;;;;-2.79;51.28;99691.08;110365;1241;69665;-70
2023/02/09 07:55:05;;;;;;;48.20;32.20;;;;;;;-2.86;51.83;99690.27;110325;1241;70232;-71
2023/02/09 07:57:37;;;;;;;49.30;32.30;;;;;;;-2.94;51.78;99689.64;110479;1241;69062;-70
2023/02/09 08:00:08;;;;;;;47.60;34.30;;;;;;;-2.87;51.11;99690.79;110263;1242;58880;-70
2023/02/09 08:02:44;;;;;;;44.20;30.60;;;;;;;-2.66;51.64;99692.86;110149;1242;58896;-70
2023/02/09 08:05:42;;;;;;;49.10;35.70;;;;;;;-2.44;51.16;99690.97;110250;1241;70943;-70
2023/02/09 08:08:12;;;;;;;47.40;30.80;;;;;;;-3.17;52.08;99687.33;110162;1241;69072;-69
2023/02/09 08:10:42;;;;;;;48.20;32.70;;;;;;;-1.96;51.58;99688.59;110253;1241;68743;-70
2023/02/09 08:13:12;;;;;;;37.90;27.10;;;;;;;-2.01;49.06;99684.27;110161;1242;58887;-70
2023/02/09 08:15:47;;;;;;;34.90;25.20;;;;;;;-1.14;49.16;99686.30;110220;1242;58826;-70
2023/02/09 08:18:31;;;;;;;37.50;25.00;;;;;;;-0.45;47.01;99683.36;110330;1241;70577;-71
2023/02/09 08:21:00;;;;;;;33.20;22.30;;;;;;;-0.66;45.19;99680.61;110307;1241;69809;-72
2023/02/09 08:23:33;;;;;;;31.70;22.50;;;;;;;0.39;46.77;99678.69;110378;1248;69588;-69
2023/02/09 08:26:14;;;;;;;27.20;19.20;;;;;;;0.89;44.64;99676.27;110351;1242;58959;-72
2023/02/09 08:28:45;;;;;;;25.70;17.40;;;;;;;1.09;41.93;99672.89;110332;1243;58856;-70
2023/02/09 08:31:17;;;;;;;30.00;19.00;;;;;;;1.28;41.78;99676.52;110357;1241;70489;-71
2023/02/09 08:33:48;;;;;;;31.60;24.80;;;;;;;1.05;41.52;99673.58;110306;1243;69792;-72
2023/02/09 08:36:18;;;;;;;33.00;25.80;;;;;;;0.87;42.53;99678.13;110167;1241;69776;-69
2023/02/09 08:38:48;;;;;;;40.80;29.20;;;;;;;0.17;43.71;99675.00;110263;1248;58832;-69
2023/02/09 08:41:18;;;;;;;37.10;26.30;;;;;;;0.27;42.70;99672.83;110169;1242;58881;-71
2023/02/09 08:43:48;;;;;;;33.20;23.40;;;;;;;0.19;42.61;99664.21;110216;1242;71288;-71
2023/02/09 08:46:18;;;;;;;32.20;23.30;;;;;;;0.24;42.80;99667.32;110206;1243;69823;-70
2023/02/09 08:48:48;;;;;;;25.10;18.00;;;;;;;0.71;41.48;99666.77;110213;1241;68322;-71
2023/02/09 08:51:22;;;;;;;27.80;19.70;;;;;;;1.05;40.76;99666.17;110327;1242;58888;-71
2023/02/09 08:53:52;;;;;;;30.30;23.60;;;;;;;1.57;40.66;99662.94;110321;1242;58855;-70
2023/02/09 08:56:22;;;;;;;29.20;21.10;;;;;;;1.32;39.63;99666.19;110173;1241;71608;-70
2023/02/09 08:58:51;;;;;;;31.60;19.40;;;;;;;1.07;40.73;99664.63;110288;1242;68496;-70
2023/02/09 09:01:19;;;;;;;21.20;15.60;;;;;;;0.93;40.54;99659.30;110194;1242;70340;-70
2023/02/09 09:03:50;;;;;;;19.80;13.10;;;;;;;1.24;39.60;99656.77;110235;1241;58935;-70
2023/02/09 09:06:23;;;;;;;18.40;13.90;;;;;;;2.04;38.27;99655.29;110228;1242;59184;-70
2023/02/09 09:08:52;;;;;;;17.10;12.60;;;;;;;1.60;38.18;99660.16;110178;1242;71301;-69
2023/02/09 09:11:21;;;;;;;14.40;11.20;;;;;;;1.81;38.13;99657.23;110215;1249;69678;-69
2023/02/09 09:13:50;;;;;;;18.10;12.70;;;;;;;1.29;38.51;99659.84;110132;1243;69825;-71
2023/02/09 09:16:22;;;;;;;16.50;12.60;;;;;;;1.25;38.59;99658.25;110328;1241;58929;-69
2023/02/09 09:18:55;;;;;;;17.70;13.30;;;;;;;1.68;38.18;99656.39;110215;1241;58892;-69
2023/02/09 09:21:24;;;;;;;16.60;13.30;;;;;;;1.51;38.33;99650.91;110318;1241;71200;-69
2023/02/09 09:23:52;;;;;;;18.40;14.70;;;;;;;2.19;37.76;99649.73;110321;1241;69158;-70
2023/02/09 09:26:21;;;;;;;18.90;14.30;;;;;;;3.05;36.04;99649.46;110346;1242;69851;-70
2023/02/09 09:28:50;;;;;;;17.50;13.60;;;;;;;2.30;36.82;99645.39;110275;1241;59183;-70
2023/02/09 09:31:19;;;;;;;17.80;14.30;;;;;;;2.23;36.59;99641.64;110352;1240;58820;-70
2023/02/09 09:33:48;;;;;;;16.70;12.10;;;;;;;2.76;36.46;99644.30;110149;1242;70695;-70
2023/02/09 09:36:19;;;;;;;17.50;14.20;;;;;;;3.61;35.59;99645.05;110178;1241;69243;-70
2023/02/09 09:38:48;;;;;;;18.60;13.80;;;;;;;3.48;34.98;99644.14;110217;1241;69838;-70
2023/02/09 09:41:27;;;;;;;18.50;14.00;;;;;;;3.99;34.32;99637.58;110187;1241;58969;-70
2023/02/09 09:43:56;;;;;;;17.80;12.60;;;;;;;4.22;33.74;99640.96;110380;1241;58854;-70
2023/02/09 09:46:42;;;;;;;19.70;14.70;;;;;;;3.87;34.38;99640.84;110328;1241;70499;-70
2023/02/09 09:49:18;;;;;;;19.70;15.50;;;;;;;3.52;34.59;99643.58;110241;1241;69854;-70
2023/02/09 09:52:01;;;;;;;18.50;14.20;;;;;;;3.19;35.15;99644.88;110156;1242;69086;-70
2023/02/09 09:54:34;;;;;;;18.20;14.40;;;;;;;3.74;34.70;99638.21;110165;1242;58897;-70
2023/02/09 09:57:11;;;;;;;18.60;15.20;;;;;;;3.76;34.49;99633.35;110228;1241;59420;-69
2023/02/09 09:59:40;;;;;;;18.50;13.90;;;;;;;4.00;34.05;99629.14;110243;1241;70991;-69
2023/02/09 10:02:29;;;;;;;21.60;16.40;;;;;;;4.82;33.46;99628.11;110269;1243;69841;-69
2023/02/09 10:05:13;;;;;;;18.40;14.20;;;;;;;5.07;32.06;99624.44;110270;1241;68723;-69
2023/02/09 10:07:47;;;;;;;17.50;12.10;;;;;;;4.83;32.52;99621.68;110102;1244;58935;-69
2023/02/09 10:10:45;;;;;;;16.60;12.80;;;;;;;5.39;31.93;99619.98;110227;1240;58822;-69
2023/02/09 10:13:29;;;;;;;19.10;14.20;;;;;;;5.90;31.26;99612.65;110251;1241;71059;-69
2023/02/09 10:15:58;;;;;;;16.90;12.90;;;;;;;5.95;30.56;99610.49;110320;1242;69726;-70
2023/02/09 10:18:29;;;;;;;16.00;12.30;;;;;;;6.82;30.29;99607.42;110196;1242;69779;-70
2023/02/09 10:21:09;;;;;;;16.60;13.30;;;;;;;7.94;29.59;99599.64;110180;1240;58887;-69
2023/02/09 10:23:45;;;;;;;20.40;17.00;;;;;;;8.92;28.84;99595.24;110171;1242;58966;-70
2023/02/09 10:26:26;;;;;;;16.60;13.20;;;;;;;9.12;27.36;99591.12;110162;1242;70375;-71
2023/02/09 10:28:58;;;;;;;12.20;10.00;;;;;;;8.42;27.07;99584.23;110168;1242;68448;-70
2023/02/09 10:31:35;;;;;;;17.40;13.50;;;;;;;8.61;26.88;99580.00;110156;1243;69102;-70
2023/02/09 10:34:07;;;;;;;18.30;13.30;;;;;;;9.55;26.97;99575.09;110188;1241;59003;-70
2023/02/09 10:36:46;;;;;;;15.80;12.80;;;;;;;9.64;25.88;99571.82;110158;1249;59342;-70
2023/02/09 10:39:32;;;;;;;17.80;13.80;;;;;;;9.99;26.24;99564.81;110165;1241;70951;-70
2023/02/09 10:42:20;;;;;;;16.00;12.40;;;;;;;10.10;26.05;99564.24;110142;1243;69766;-69
2023/02/09 10:44:52;;;;;;;15.20;12.30;;;;;;;10.38;25.86;99563.75;110125;1242;69059;-72
2023/02/09 10:47:24;;;;;;;12.30;10.70;;;;;;;10.69;25.16;99560.98;110156;1241;58994;-70
2023/02/09 10:49:55;;;;;;;14.70;11.80;;;;;;;10.93;24.77;99555.69;110147;1242;58946;-70
2023/02/09 10:52:29;;;;;;;13.00;10.80;;;;;;;10.63;24.73;99557.20;110144;1245;70931;-70
2023/02/09 10:55:03;;;;;;;12.70;11.20;;;;;;;10.52;24.36;99549.60;110167;1242;69044;-70
2023/02/09 10:57:37;;;;;;;18.40;14.60;;;;;;;10.76;24.80;99547.61;110168;1243;69302;-71
2023/02/09 11:00:24;;;;;;;18.70;16.40;;;;;;;10.15;24.08;99547.14;110136;1243;58998;-70
2023/02/09 11:03:00;;;;;;;19.90;15.80;;;;;;;8.51;25.37;99546.84;110148;1242;58839;-72
2023/02/09 11:05:34;;;;;;;18.50;15.40;;;;;;;7.31;27.16;99544.40;110152;1242;71127;-71
2023/02/09 11:08:09;;;;;;;18.50;16.50;;;;;;;7.02;27.76;99544.43;110161;1241;69130;-70
2023/02/09 11:10:44;;;;;;;21.60;17.40;;;;;;;6.61;28.42;99543.65;110094;1246;69104;-70
2023/02/09 11:13:24;;;;;;;19.60;16.20;;;;;;;7.36;28.00;99541.13;110130;1241;58904;-70
2023/02/09 11:16:19;;;;;;;17.30;14.50;;;;;;;7.59;28.08;99543.11;110183;1241;59014;-70
2023/02/09 11:19:00;;;;;;;19.80;15.90;;;;;;;8.69;27.85;99537.18;109941;1247;71199;-71
2023/02/09 11:21:37;;;;;;;16.10;14.10;;;;;;;9.23;26.67;99530.02;110145;1244;70267;-71
2023/02/09 11:24:15;;;;;;;20.20;15.60;;;;;;;9.68;26.61;99533.70;110258;1241;68445;-71
2023/02/09 11:26:54;;;;;;;20.60;16.50;;;;;;;9.48;26.25;99527.27;110166;1243;58969;-71
2023/02/09 11:29:31;;;;;;;19.30;15.80;;;;;;;9.65;26.39;99522.52;110252;1241;58879;-70
2023/02/09 11:32:14;;;;;;;24.00;16.60;;;;;;;8.93;26.77;99520.95;110197;1241;69402;-70
2023/02/09 11:34:59;;;;;;;16.10;13.60;;;;;;;9.72;26.23;99522.92;110164;1242;69824;-71
2023/02/09 11:37:34;;;;;;;16.40;13.60;;;;;;;10.87;25.09;99523.82;110135;1240;68315;-70
2023/02/09 11:40:03;;;;;;;15.50;12.90;;;;;;;11.74;24.06;99515.92;110149;1240;58920;-70
2023/02/09 11:42:43;;;;;;;14.50;12.70;;;;;;;10.84;23.77;99516.72;110207;1242;58836;-70